Time;durP1;ratioP1;P1;durP2;ratioP2;P2;SDS_P1;SDS_P2;PMS_P1;PMS_P2;Temp;Humidity;BMP_temperature;BMP_pressure;BME280_temperature;BME280_humidity;BME280_pressure;Samples;Min_cycle;Max_cycle;Signal;HPM_P1;HPM_P2
2021/04/10 00:00:53;;;;;;;9.30;3.88;;;;;;;5.52;100.00;101310.31;3571593;40;20074;-64
2021/04/10 00:03:19;;;;;;;12.57;3.58;;;;;;;5.43;100.00;101316.19;3574130;40;20055;-65
2021/04/10 00:05:45;;;;;;;8.23;3.67;;;;;;;5.47;100.00;101312.38;3574516;40;20041;-65
2021/04/10 00:08:11;;;;;;;8.57;3.47;;;;;;;5.53;100.00;101311.16;3573610;40;20138;-66
2021/04/10 00:10:37;;;;;;;12.93;3.83;;;;;;;5.52;100.00;101314.75;3573486;40;20089;-65
2021/04/10 00:13:03;;;;;;;12.77;3.40;;;;;;;5.49;100.00;101309.63;3572731;40;20061;-64
2021/04/10 00:15:29;;;;;;;11.15;3.50;;;;;;;5.44;100.00;101318.75;3573647;40;20155;-64
2021/04/10 00:17:57;;;;;;;10.23;4.25;;;;;;;5.37;100.00;101311.22;3574348;40;20110;-64
2021/04/10 00:20:24;;;;;;;10.77;4.18;;;;;;;5.39;100.00;101304.84;3574591;40;20118;-64
2021/04/10 00:22:51;;;;;;;6.40;3.58;;;;;;;5.38;100.00;101308.44;3575974;40;20116;-64
2021/04/10 00:25:19;;;;;;;13.70;4.13;;;;;;;5.33;100.00;101304.31;3574471;40;20116;-65
2021/04/10 00:27:45;;;;;;;11.75;3.47;;;;;;;5.34;100.00;101301.56;3575952;40;20049;-65
2021/04/10 00:30:13;;;;;;;9.98;3.47;;;;;;;5.33;100.00;101304.31;3572798;40;20045;-66
2021/04/10 00:32:40;;;;;;;15.77;3.70;;;;;;;5.47;100.00;101316.88;3574960;40;20076;-65
2021/04/10 00:35:08;;;;;;;10.90;3.55;;;;;;;5.54;100.00;101321.75;3575281;40;20059;-66
2021/04/10 00:37:35;;;;;;;10.65;3.63;;;;;;;5.49;100.00;101321.19;3575928;40;20126;-63
2021/04/10 00:40:01;;;;;;;8.27;4.47;;;;;;;5.41;100.00;101323.44;3574110;40;20123;-67
2021/04/10 00:42:27;;;;;;;13.27;4.88;;;;;;;5.48;100.00;101319.44;3576726;40;20033;-66
2021/04/10 00:44:53;;;;;;;12.95;4.13;;;;;;;5.51;100.00;101329.09;3575564;40;20059;-66
2021/04/10 00:47:19;;;;;;;10.00;4.40;;;;;;;5.35;100.00;101316.63;3573556;40;20049;-66
2021/04/10 00:49:45;;;;;;;11.48;4.35;;;;;;;5.40;100.00;101316.38;3574533;40;20049;-67
2021/04/10 00:52:14;;;;;;;14.88;4.15;;;;;;;5.42;100.00;101320.66;3572462;40;20061;-66
2021/04/10 00:54:40;;;;;;;11.55;4.75;;;;;;;5.32;100.00;101311.50;3573922;40;20049;-66
2021/04/10 00:57:07;;;;;;;12.10;4.93;;;;;;;5.40;100.00;101311.03;3572723;40;20098;-66
2021/04/10 00:59:33;;;;;;;14.90;4.80;;;;;;;5.39;100.00;101304.00;3574053;40;20100;-66
2021/04/10 01:02:01;;;;;;;11.23;4.82;;;;;;;5.34;100.00;101308.72;3574197;40;20047;-66
2021/04/10 01:04:28;;;;;;;13.83;4.93;;;;;;;5.40;100.00;101308.34;3573183;40;20061;-66
2021/04/10 01:06:54;;;;;;;11.13;4.82;;;;;;;5.25;100.00;101312.78;3573168;40;20280;-66
2021/04/10 01:09:20;;;;;;;12.25;5.07;;;;;;;5.33;100.00;101312.34;3573607;40;20041;-66
2021/04/10 01:11:59;;;;;;;13.35;5.43;;;;;;;5.28;100.00;101323.28;3575692;40;20061;-66
2021/04/10 01:14:36;;;;;;;14.20;5.80;;;;;;;5.22;100.00;101313.81;3575979;40;20484;-65
2021/04/10 01:17:08;;;;;;;15.55;5.50;;;;;;;5.29;100.00;101311.66;3573867;40;20396;-66
2021/04/10 01:20:08;;;;;;;12.95;5.30;;;;;;;5.17;100.00;101305.25;3573619;40;20068;-66
2021/04/10 01:22:45;;;;;;;;;;;;;;;5.21;100.00;101309.47;3574996;40;20063;-67
2021/04/10 01:25:21;;;;;;;14.10;6.43;;;;;;;5.22;100.00;101307.66;3574987;40;21697;-67
2021/04/10 01:27:51;;;;;;;11.27;5.35;;;;;;;5.14;100.00;101308.09;3574364;40;20059;-66
2021/04/10 01:30:20;;;;;;;14.07;6.10;;;;;;;5.29;100.00;101298.31;3572953;40;20041;-65
2021/04/10 01:32:51;;;;;;;12.65;5.68;;;;;;;5.31;100.00;101304.41;3575126;40;20047;-64
2021/04/10 01:35:18;;;;;;;13.52;5.72;;;;;;;5.20;100.00;101304.22;3575625;40;20056;-64
2021/04/10 01:37:52;;;;;;;14.13;6.22;;;;;;;5.12;100.00;101307.31;3573699;40;20045;-64
2021/04/10 01:40:20;;;;;;;14.45;5.43;;;;;;;5.17;100.00;101305.25;3574021;40;20169;-64
2021/04/10 01:42:47;;;;;;;12.93;6.38;;;;;;;5.20;100.00;101305.06;3574158;40;20041;-64
2021/04/10 01:45:15;;;;;;;10.55;5.40;;;;;;;5.08;100.00;101305.81;3573058;40;20053;-65
2021/04/10 01:47:44;;;;;;;12.20;6.00;;;;;;;5.13;100.00;101314.38;3573749;40;20070;-66
2021/04/10 01:50:10;;;;;;;16.05;5.93;;;;;;;5.09;100.00;101312.84;3573432;40;20331;-65
2021/04/10 01:52:37;;;;;;;12.93;5.43;;;;;;;5.10;100.00;101314.56;3573970;40;20063;-66
2021/04/10 01:55:05;;;;;;;13.70;5.00;;;;;;;5.08;100.00;101311.97;3575701;40;20045;-66
2021/04/10 02:00:09;;;;;;;13.75;5.22;;;;;;;5.04;100.00;101321.09;3603693;22;20044;-65
2021/04/10 02:02:38;;;;;;;12.65;5.30;;;;;;;5.10;100.00;101314.56;3580653;40;20036;-66
2021/04/10 02:05:07;;;;;;;;;;;;;;;5.12;100.00;101318.00;3581980;40;20331;-65
2021/04/10 02:07:33;;;;;;;10.75;4.57;;;;;;;5.07;100.00;101318.25;3579073;40;19940;-66
2021/04/10 02:10:03;;;;;;;16.60;5.68;;;;;;;4.99;100.00;101317.88;3582615;40;20086;-65
2021/04/10 02:12:31;;;;;;;12.82;5.65;;;;;;;5.05;100.00;101321.97;3586079;40;20082;-65
2021/04/10 02:14:58;;;;;;;11.98;5.18;;;;;;;5.10;100.00;101319.91;3584351;40;20032;-65
2021/04/10 02:17:24;;;;;;;8.43;4.65;;;;;;;5.10;100.00;101325.22;3583267;40;20039;-65
2021/04/10 02:19:51;;;;;;;9.57;5.20;;;;;;;4.96;100.00;101326.03;3583582;40;20033;-65
2021/04/10 02:22:18;;;;;;;13.93;4.95;;;;;;;4.94;100.00;101324.41;3583333;40;20079;-65
2021/04/10 02:24:44;;;;;;;14.43;5.53;;;;;;;5.02;100.00;101323.03;3585889;40;20334;-65
2021/04/10 02:27:11;;;;;;;14.57;6.05;;;;;;;5.01;100.00;101331.97;3584284;40;20055;-65
2021/04/10 02:29:37;;;;;;;11.15;5.50;;;;;;;4.91;100.00;101330.78;3582889;40;20048;-65
2021/04/10 02:32:07;;;;;;;14.90;5.50;;;;;;;4.96;100.00;101327.84;3584283;40;20052;-65
2021/04/10 02:34:42;;;;;;;12.65;4.75;;;;;;;4.98;100.00;101325.97;3579026;40;20044;-65
2021/04/10 02:37:08;;;;;;;14.95;5.85;;;;;;;5.01;100.00;101331.09;3575651;40;20077;-65
2021/04/10 02:39:38;;;;;;;10.60;4.55;;;;;;;4.93;100.00;101328.84;3574182;40;20053;-65
2021/04/10 02:42:07;;;;;;;11.27;4.30;;;;;;;4.84;100.00;101324.91;3574966;40;20077;-64
2021/04/10 02:44:37;;;;;;;9.15;4.85;;;;;;;4.82;100.00;101325.97;3574762;40;20045;-66
2021/04/10 02:47:07;;;;;;;13.60;4.57;;;;;;;4.76;100.00;101321.84;3574154;40;20051;-66
2021/04/10 02:49:38;;;;;;;10.85;3.25;;;;;;;4.69;100.00;101323.13;3571710;40;20068;-67
2021/04/10 02:52:06;;;;;;;7.80;3.47;;;;;;;4.72;100.00;101331.81;3573862;40;20320;-66
2021/04/10 02:54:37;;;;;;;8.52;3.70;;;;;;;4.77;100.00;101334.25;3573433;40;20077;-65
2021/04/10 02:57:08;;;;;;;8.80;3.33;;;;;;;4.83;100.00;101339.22;3574179;40;20049;-66
2021/04/10 02:59:38;;;;;;;12.25;3.63;;;;;;;4.87;100.00;101335.44;3572997;40;20033;-66
2021/04/10 03:02:04;;;;;;;;;;;;;;;4.76;100.00;101327.19;3573668;40;20057;-66
2021/04/10 03:04:31;;;;;;;6.88;2.97;;;;;;;4.82;100.00;101332.16;3574755;40;19940;-65
2021/04/10 03:06:57;;;;;;;9.10;2.88;;;;;;;4.75;100.00;101330.78;3574972;40;20033;-65
2021/04/10 03:09:24;;;;;;;12.57;3.38;;;;;;;4.76;100.00;101321.00;3573424;40;20126;-66
2021/04/10 03:11:51;;;;;;;9.82;3.30;;;;;;;4.71;100.00;101313.22;3574793;40;20052;-65
2021/04/10 03:14:18;;;;;;;10.48;3.15;;;;;;;4.73;100.00;101325.53;3571637;40;20053;-66
2021/04/10 03:16:44;;;;;;;9.50;2.67;;;;;;;4.72;100.00;101320.28;3573799;40;20057;-66
2021/04/10 03:19:11;;;;;;;8.98;2.90;;;;;;;4.68;100.00;101321.41;3571767;40;20063;-66
2021/04/10 03:21:39;;;;;;;9.98;2.70;;;;;;;4.71;100.00;101318.56;3573571;40;20376;-66
2021/04/10 03:24:06;;;;;;;8.15;4.07;;;;;;;4.69;100.00;101309.81;3574046;40;20048;-65
2021/04/10 03:26:32;;;;;;;16.08;4.03;;;;;;;4.73;100.00;101319.34;3574956;40;20055;-65
2021/04/10 03:29:00;;;;;;;9.38;4.00;;;;;;;4.77;100.00;101320.91;3572968;40;20102;-65
2021/04/10 03:31:27;;;;;;;12.98;3.83;;;;;;;4.77;100.00;101320.91;3574442;40;20377;-66
2021/04/10 03:33:53;;;;;;;9.43;3.75;;;;;;;4.77;100.00;101328.03;3574438;40;20039;-66
2021/04/10 03:36:20;;;;;;;8.30;3.30;;;;;;;4.84;100.00;101330.25;3573247;40;20063;-66
2021/04/10 03:38:46;;;;;;;10.13;3.38;;;;;;;4.77;100.00;101328.91;3573527;40;20049;-65
2021/04/10 03:41:12;;;;;;;14.00;3.92;;;;;;;4.73;100.00;101325.53;3573774;40;20063;-65
2021/04/10 03:43:38;;;;;;;9.40;3.60;;;;;;;4.75;100.00;101336.09;3573991;40;20056;-66
2021/04/10 03:46:05;;;;;;;6.80;3.03;;;;;;;4.70;100.00;101327.53;3573213;40;20427;-65
2021/04/10 03:48:31;;;;;;;10.45;3.30;;;;;;;4.72;100.00;101330.94;3571614;40;20045;-65
2021/04/10 03:50:58;;;;;;;12.35;3.20;;;;;;;4.68;100.00;101324.06;3571812;40;20418;-65
2021/04/10 03:53:24;;;;;;;17.02;3.03;;;;;;;4.65;100.00;101325.13;3573002;40;20045;-66
2021/04/10 03:55:50;;;;;;;6.40;2.80;;;;;;;4.63;100.00;101327.00;3573389;40;20055;-65
2021/04/10 03:58:16;;;;;;;7.30;2.70;;;;;;;4.62;100.00;101340.41;3571802;40;20053;-65
2021/04/10 04:00:42;;;;;;;10.07;3.22;;;;;;;4.62;100.00;101340.41;3571446;40;20044;-65
2021/04/10 04:03:09;;;;;;;9.82;3.35;;;;;;;4.67;100.00;101349.03;3573953;40;20396;-66
2021/04/10 04:08:28;;;;;;;12.93;3.08;;;;;;;4.60;100.00;101345.00;3591771;23;20123;-64
2021/04/10 04:10:54;;;;;;;12.88;3.38;;;;;;;4.57;100.00;101341.53;3584379;40;20048;-65
2021/04/10 04:13:20;;;;;;;11.60;3.40;;;;;;;4.54;100.00;101344.38;3582335;40;20055;-65
2021/04/10 04:15:46;;;;;;;7.53;2.78;;;;;;;4.57;100.00;101343.34;3585098;40;20041;-65
2021/04/10 04:18:13;;;;;;;13.43;2.80;;;;;;;4.61;100.00;101341.34;3583346;40;20388;-65
2021/04/10 04:20:39;;;;;;;11.38;3.05;;;;;;;4.61;100.00;101344.03;3584330;40;20505;-66
2021/04/10 04:23:04;;;;;;;15.57;3.17;;;;;;;4.56;100.00;101344.28;3583391;40;20130;-65
2021/04/10 04:25:30;;;;;;;9.50;3.35;;;;;;;4.70;100.00;101351.53;3584878;40;20123;-66
2021/04/10 04:27:56;;;;;;;9.52;2.50;;;;;;;4.71;100.00;101354.09;3585332;40;20139;-65
2021/04/10 04:30:23;;;;;;;16.45;3.00;;;;;;;4.64;100.00;101351.84;3578178;40;20403;-65
2021/04/10 04:32:49;;;;;;;11.70;2.38;;;;;;;4.64;100.00;101350.06;3573964;40;20041;-66
2021/04/10 04:35:16;;;;;;;11.35;2.75;;;;;;;4.55;100.00;101355.91;3572661;40;20079;-66
2021/04/10 04:37:42;;;;;;;9.63;2.78;;;;;;;4.62;100.00;101357.25;3573986;40;20068;-66
2021/04/10 04:40:09;;;;;;;7.40;2.75;;;;;;;4.76;100.00;101369.00;3572917;40;20057;-66
2021/04/10 04:42:35;;;;;;;12.30;3.00;;;;;;;4.63;100.00;101372.31;3574865;40;20047;-65
2021/04/10 04:45:02;;;;;;;14.13;3.28;;;;;;;4.67;100.00;101371.22;3572753;40;20067;-65
2021/04/10 04:47:29;;;;;;;10.75;3.00;;;;;;;4.76;100.00;101369.84;3572232;40;20057;-65
2021/04/10 04:49:55;;;;;;;16.02;3.50;;;;;;;4.70;100.00;101375.53;3573588;40;20183;-66
2021/04/10 04:52:22;;;;;;;14.07;3.70;;;;;;;4.67;100.00;101376.53;3572986;40;20049;-64
2021/04/10 04:54:48;;;;;;;8.70;2.78;;;;;;;4.66;100.00;101389.97;3572186;40;20056;-66
2021/04/10 04:57:14;;;;;;;11.25;3.10;;;;;;;4.65;100.00;101388.22;3583208;39;20393;-65
2021/04/10 04:59:39;;;;;;;12.48;3.80;;;;;;;4.63;100.00;101390.13;3575873;40;20045;-65
2021/04/10 05:02:05;;;;;;;11.82;3.53;;;;;;;4.57;100.00;101392.19;3568426;40;20311;-64
2021/04/10 05:04:32;;;;;;;9.30;3.20;;;;;;;4.62;100.00;101388.41;3573633;40;20147;-65
2021/04/10 05:06:58;;;;;;;10.60;2.75;;;;;;;4.62;100.00;101385.75;3576575;40;20440;-65
2021/04/10 05:09:24;;;;;;;10.73;3.40;;;;;;;4.56;100.00;101389.59;3572553;40;20041;-66
2021/04/10 05:11:51;;;;;;;10.05;3.63;;;;;;;4.61;100.00;101384.00;3574628;40;20126;-65
2021/04/10 05:14:17;;;;;;;10.20;3.80;;;;;;;4.63;100.00;101391.00;3573895;40;20041;-64
2021/04/10 05:16:43;;;;;;;12.90;3.85;;;;;;;4.65;100.00;101377.56;3576637;40;20493;-65
2021/04/10 05:19:09;;;;;;;13.32;3.25;;;;;;;4.61;100.00;101384.00;3574014;40;20319;-65
2021/04/10 05:21:35;;;;;;;10.73;3.30;;;;;;;4.53;100.00;101392.44;3575614;40;20525;-65
2021/04/10 05:24:01;;;;;;;14.27;3.67;;;;;;;4.53;100.00;101398.66;3574176;40;20045;-65
2021/04/10 05:26:28;;;;;;;9.35;4.13;;;;;;;4.53;100.00;101406.66;3575581;40;20358;-65
2021/04/10 05:28:54;;;;;;;8.55;3.17;;;;;;;4.56;100.00;101401.16;3572855;40;20061;-65
2021/04/10 05:31:20;;;;;;;11.57;3.42;;;;;;;4.50;100.00;101403.28;3575417;40;20284;-64
2021/04/10 05:33:46;;;;;;;11.52;3.75;;;;;;;4.49;100.00;101407.75;3574469;40;20052;-65
2021/04/10 05:36:12;;;;;;;12.00;3.92;;;;;;;4.45;100.00;101400.84;3575440;40;20059;-64
2021/04/10 05:38:38;;;;;;;7.95;3.05;;;;;;;4.43;100.00;101394.75;3572937;40;20315;-64
2021/04/10 05:41:06;;;;;;;12.52;3.40;;;;;;;4.56;100.00;101395.81;3571960;40;20059;-65
2021/04/10 05:43:33;;;;;;;11.15;3.50;;;;;;;4.61;100.00;101402.66;3574982;40;20060;-65
2021/04/10 05:48:28;;;;;;;8.82;3.40;;;;;;;4.63;100.00;101416.81;3603238;23;20061;-65
2021/04/10 05:50:54;;;;;;;13.38;3.72;;;;;;;4.62;100.00;101417.72;3583036;40;20133;-65
2021/04/10 05:53:20;;;;;;;9.02;3.85;;;;;;;4.54;100.00;101420.81;3584858;40;20080;-65
2021/04/10 05:55:46;;;;;;;13.93;3.70;;;;;;;4.51;100.00;101423.66;3584297;40;20716;-65
2021/04/10 05:58:12;;;;;;;15.30;3.97;;;;;;;4.49;100.00;101423.75;3583706;40;20056;-65
2021/04/10 06:00:39;;;;;;;14.70;3.80;;;;;;;4.58;100.00;101425.06;3583905;40;20048;-65
2021/04/10 06:03:05;;;;;;;11.65;3.75;;;;;;;4.55;100.00;101426.06;3585197;40;20419;-66
2021/04/10 06:05:31;;;;;;;9.23;3.17;;;;;;;4.56;100.00;101421.59;3584780;40;20102;-64
2021/04/10 06:07:57;;;;;;;8.07;4.15;;;;;;;4.62;100.00;101439.06;3585595;40;20052;-65
2021/04/10 06:10:23;;;;;;;13.52;3.47;;;;;;;4.64;100.00;101434.50;3583711;40;20423;-65
2021/04/10 06:12:49;;;;;;;15.48;4.00;;;;;;;4.63;100.00;101427.47;3585591;40;20037;-65
2021/04/10 06:15:18;;;;;;;9.98;3.88;;;;;;;4.67;100.00;101434.34;3582694;40;20097;-65
2021/04/10 06:17:46;;;;;;;11.77;3.22;;;;;;;4.72;100.00;101432.28;3585143;40;20429;-65
2021/04/10 06:20:14;;;;;;;12.00;3.50;;;;;;;4.79;100.00;101432.81;3583007;40;20179;-64
2021/04/10 06:22:40;;;;;;;13.40;4.20;;;;;;;4.68;100.00;101436.06;3586175;40;20076;-64
2021/04/10 06:25:07;;;;;;;12.85;4.07;;;;;;;4.72;100.00;101433.13;3585919;40;20048;-65
2021/04/10 06:27:33;;;;;;;14.13;4.10;;;;;;;4.68;100.00;101438.72;3585818;40;20184;-65
2021/04/10 06:29:59;;;;;;;10.10;4.22;;;;;;;4.76;100.00;101436.50;3584578;40;20036;-65
2021/04/10 06:32:25;;;;;;;12.05;3.47;;;;;;;4.71;100.00;101441.22;3584661;40;20133;-65
2021/04/10 06:34:52;;;;;;;17.10;4.63;;;;;;;4.78;100.00;101449.75;3585130;40;20364;-65
2021/04/10 06:37:18;;;;;;;17.10;4.70;;;;;;;4.96;100.00;101443.41;3585933;40;20070;-66
2021/04/10 06:39:44;;;;;;;11.82;3.97;;;;;;;4.98;100.00;101430.00;3585976;40;20049;-65
2021/04/10 06:42:10;;;;;;;12.57;4.10;;;;;;;4.99;100.00;101429.03;3584566;40;20049;-64
2021/04/10 06:44:36;;;;;;;11.55;4.00;;;;;;;5.08;100.00;101428.53;3583998;40;20048;-66
2021/04/10 06:47:03;;;;;;;13.88;4.00;;;;;;;5.13;100.00;101431.78;3584773;40;20055;-65
2021/04/10 06:49:30;;;;;;;10.65;3.55;;;;;;;5.22;100.00;101436.59;3585084;40;20359;-65
2021/04/10 06:51:58;;;;;;;10.93;3.60;;;;;;;5.16;100.00;101442.28;3585325;40;20045;-65
2021/04/10 06:54:29;;;;;;;11.50;3.80;;;;;;;5.17;100.00;101438.69;3585380;40;20364;-64
2021/04/10 06:57:02;;;;;;;12.35;4.05;;;;;;;5.08;100.00;101439.19;3584951;40;20040;-66
2021/04/10 06:59:37;;;;;;;11.77;4.07;;;;;;;5.13;100.00;101444.28;3582727;40;20040;-65
2021/04/10 07:02:09;;;;;;;12.00;3.33;;;;;;;5.23;100.00;101448.16;3584877;40;20052;-65
2021/04/10 07:04:35;;;;;;;15.50;4.00;;;;;;;5.25;100.00;101451.56;3585337;40;20056;-65
2021/04/10 07:07:03;;;;;;;12.45;3.63;;;;;;;5.30;100.00;101457.53;3584839;40;20048;-65
2021/04/10 07:09:30;;;;;;;13.13;3.75;;;;;;;5.48;100.00;101452.94;3581644;40;20398;-66
2021/04/10 07:11:56;;;;;;;11.63;3.60;;;;;;;5.43;100.00;101460.34;3584013;40;20045;-65
2021/04/10 07:14:22;;;;;;;12.88;3.00;;;;;;;5.53;100.00;101464.19;3584649;40;20398;-65
2021/04/10 07:16:48;;;;;;;10.00;3.10;;;;;;;5.65;100.00;101464.44;3585309;40;20126;-65
2021/04/10 07:19:15;;;;;;;8.70;3.25;;;;;;;5.73;100.00;101468.38;3583378;40;20052;-65
2021/04/10 07:21:41;;;;;;;7.78;3.08;;;;;;;5.64;100.00;101462.72;3583404;40;20041;-66
2021/04/10 07:24:08;;;;;;;10.27;3.42;;;;;;;5.59;100.00;101466.53;3585872;40;20048;-65
2021/04/10 07:26:50;;;;;;;10.68;3.47;;;;;;;5.70;100.00;101465.91;3584898;40;20099;-66
2021/04/10 07:29:29;;;;;;;10.15;3.30;;;;;;;5.71;100.00;101475.66;3582997;40;20097;-65
2021/04/10 07:31:55;;;;;;;10.68;3.65;;;;;;;5.69;100.00;101466.00;3582976;40;20044;-65
2021/04/10 07:34:22;;;;;;;15.65;4.13;;;;;;;5.66;100.00;101475.03;3584818;40;20057;-66
2021/04/10 07:36:56;;;;;;;9.95;3.88;;;;;;;5.72;100.00;101476.50;3582810;40;20055;-65
2021/04/10 07:39:22;;;;;;;17.13;4.50;;;;;;;5.78;100.00;101479.66;3582227;40;20660;-66
2021/04/10 07:41:58;;;;;;;10.65;4.32;;;;;;;5.93;100.00;101475.25;3583981;40;20130;-65
2021/04/10 07:44:36;;;;;;;11.38;5.10;;;;;;;6.02;100.00;101484.56;3582911;40;20048;-66
2021/04/10 07:47:04;;;;;;;10.35;3.55;;;;;;;6.06;100.00;101471.88;3584202;40;20045;-66
2021/04/10 07:49:30;;;;;;;5.82;2.88;;;;;;;6.10;100.00;101473.41;3582861;40;20092;-65
2021/04/10 07:51:59;;;;;;;11.20;2.92;;;;;;;6.45;100.00;101473.09;3583333;40;20149;-65
2021/04/10 07:54:27;;;;;;;9.10;3.47;;;;;;;6.40;100.00;101472.50;3582861;40;20052;-66
2021/04/10 07:57:02;;;;;;;6.22;2.50;;;;;;;6.53;100.00;101462.75;3584241;40;20426;-67
2021/04/10 07:59:31;;;;;;;7.38;2.70;;;;;;;6.57;100.00;101468.78;3584304;40;20080;-64
2021/04/10 08:02:10;;;;;;;8.23;2.23;;;;;;;6.58;100.00;101463.34;3584444;40;20052;-67
2021/04/10 08:04:37;;;;;;;11.77;2.63;;;;;;;6.55;100.00;101460.88;3583908;40;20657;-65
2021/04/10 08:07:03;;;;;;;7.95;2.50;;;;;;;6.66;100.00;101450.34;3584253;40;20056;-65
2021/04/10 08:09:32;;;;;;;7.38;2.60;;;;;;;6.75;100.00;101456.91;3584005;40;20051;-66
2021/04/10 08:11:58;;;;;;;9.93;2.22;;;;;;;6.83;100.00;101462.66;3583946;40;20053;-65
2021/04/10 08:14:25;;;;;;;11.48;2.25;;;;;;;7.05;100.00;101469.31;3584373;40;20062;-64
2021/04/10 08:16:52;;;;;;;6.80;1.83;;;;;;;7.17;100.00;101468.53;3585030;40;20064;-66
2021/04/10 08:19:29;;;;;;;7.95;2.30;;;;;;;7.39;100.00;101469.81;3583761;40;20056;-66
2021/04/10 08:21:55;;;;;;;5.88;1.77;;;;;;;7.14;100.00;101471.41;3584706;40;20133;-66
2021/04/10 08:24:35;;;;;;;7.13;1.92;;;;;;;7.09;100.00;101469.97;3584888;40;20127;-66
2021/04/10 08:27:04;;;;;;;8.55;2.00;;;;;;;7.40;100.00;101465.31;3585196;40;20365;-66
2021/04/10 08:29:31;;;;;;;8.70;2.03;;;;;;;7.62;100.00;101472.78;3584716;40;20109;-66
2021/04/10 08:31:57;;;;;;;9.73;2.55;;;;;;;7.63;100.00;101472.69;3584671;40;20044;-66
2021/04/10 08:34:24;;;;;;;7.60;2.05;;;;;;;7.46;100.00;101472.94;3585089;40;20049;-65
2021/04/10 08:36:52;;;;;;;7.32;2.00;;;;;;;7.50;100.00;101482.50;3585861;40;20314;-65
2021/04/10 08:39:21;;;;;;;8.43;2.92;;;;;;;7.62;100.00;101478.16;3585747;40;20047;-66
2021/04/10 08:41:53;;;;;;;5.53;1.63;;;;;;;7.57;100.00;101478.47;3587217;40;20092;-67
2021/04/10 08:44:25;;;;;;;7.78;1.77;;;;;;;8.03;100.00;101482.56;3587003;40;20286;-66
2021/04/10 08:46:52;;;;;;;4.93;1.83;;;;;;;8.01;100.00;101477.28;3587299;40;20049;-67
2021/04/10 08:49:19;;;;;;;6.55;2.38;;;;;;;7.84;100.00;101464.19;3587024;40;20146;-65
2021/04/10 08:51:47;;;;;;;7.28;2.17;;;;;;;8.07;100.00;101468.84;3587525;40;20376;-67
2021/04/10 08:54:14;;;;;;;6.68;2.00;;;;;;;8.07;100.00;101471.50;3586576;40;20403;-67
2021/04/10 08:56:41;;;;;;;5.55;1.98;;;;;;;8.19;100.00;101474.31;3587434;40;20029;-66
2021/04/10 08:59:15;;;;;;;9.32;2.10;;;;;;;8.51;100.00;101465.88;3586581;40;20041;-65
2021/04/10 09:01:43;;;;;;;5.68;1.70;;;;;;;8.45;100.00;101460.94;3587325;40;20045;-66
2021/04/10 09:04:09;;;;;;;6.10;1.90;;;;;;;8.46;100.00;101468.03;3586893;40;20425;-66
2021/04/10 09:06:51;;;;;;;8.75;2.05;;;;;;;8.57;100.00;101460.09;3587263;40;20399;-67
2021/04/10 09:09:28;;;;;;;7.78;2.05;;;;;;;8.62;100.00;101467.81;3586607;40;20428;-66
2021/04/10 09:12:18;;;;;;;4.60;2.08;;;;;;;8.45;100.00;101466.31;3586737;40;20417;-66
2021/04/10 09:14:46;;;;;;;4.60;1.70;;;;;;;8.67;100.00;101469.22;3587626;40;20040;-66
2021/04/10 09:17:12;;;;;;;7.72;1.75;;;;;;;8.54;100.00;101476.41;3587430;40;20059;-67
2021/04/10 09:19:38;;;;;;;7.90;1.90;;;;;;;8.49;100.00;101478.56;3586932;40;20052;-65
2021/04/10 09:22:05;;;;;;;6.45;1.90;;;;;;;8.71;100.00;101465.31;3587000;40;20454;-66
2021/04/10 09:24:38;;;;;;;6.72;2.05;;;;;;;8.87;100.00;101478.50;3586983;40;20121;-66
2021/04/10 09:27:07;;;;;;;6.70;1.98;;;;;;;9.29;100.00;101472.84;3587063;40;20056;-66
2021/04/10 09:29:52;;;;;;;8.00;2.78;;;;;;;8.91;100.00;101484.53;3586911;40;20276;-67
2021/04/10 09:32:32;;;;;;;7.97;2.50;;;;;;;8.91;100.00;101476.50;3586272;40;20089;-66
2021/04/10 09:35:00;;;;;;;8.60;2.20;;;;;;;8.78;100.00;101473.81;3586689;40;20047;-65
2021/04/10 09:37:54;;;;;;;8.48;2.05;;;;;;;8.79;100.00;101471.97;3586558;40;20099;-65
2021/04/10 09:40:47;;;;;;;9.07;2.20;;;;;;;8.61;100.00;101477.69;3585393;40;20071;-66
2021/04/10 10:28:45;;;;;;;7.53;1.77;;;;;;;8.05;100.00;101473.44;3592682;23;20280;-66
2021/04/10 10:31:12;;;;;;;6.70;1.77;;;;;;;7.97;100.00;101474.94;3575131;40;20279;-67
2021/04/10 10:33:39;;;;;;;5.82;1.83;;;;;;;7.83;100.00;101466.00;3574813;40;20059;-65
2021/04/10 10:36:06;;;;;;;7.65;1.73;;;;;;;7.75;100.00;101468.34;3574694;40;20315;-65
2021/04/10 10:38:34;;;;;;;11.40;2.10;;;;;;;7.61;100.00;101466.59;3575012;40;20310;-66
2021/04/10 10:41:00;;;;;;;6.10;2.10;;;;;;;7.95;100.00;101469.69;3575191;40;20088;-67
2021/04/10 10:43:27;;;;;;;3.33;1.55;;;;;;;7.67;100.00;101466.19;3565487;40;20033;-66
2021/04/10 10:45:57;;;;;;;6.38;1.85;;;;;;;7.62;100.00;101462.94;3565621;40;20078;-65
2021/04/10 10:48:26;;;;;;;6.95;1.52;;;;;;;7.80;100.00;101465.34;3565400;40;20139;-66
2021/04/10 10:50:54;;;;;;;5.90;1.38;;;;;;;7.75;100.00;101462.97;3566188;40;20060;-67
2021/04/10 10:53:22;;;;;;;6.03;1.70;;;;;;;7.70;100.00;101460.59;3582869;40;20215;-64
2021/04/10 10:56:10;;;;;;;7.28;1.50;;;;;;;7.75;100.00;101446.03;3585056;40;20052;-66
2021/04/10 10:58:38;;;;;;;5.70;1.70;;;;;;;8.09;100.00;101446.44;3582232;40;20044;-66
2021/04/10 11:01:13;;;;;;;5.32;1.80;;;;;;;8.38;100.00;101436.34;3585686;40;20057;-65
2021/04/10 11:03:43;;;;;;;5.72;2.33;;;;;;;8.59;100.00;101436.69;3584952;40;20092;-66
2021/04/10 11:06:10;;;;;;;6.32;1.70;;;;;;;8.56;100.00;101442.28;3584940;40;20420;-66
2021/04/10 11:08:36;;;;;;;5.90;1.80;;;;;;;8.06;100.00;101436.75;3584546;40;20086;-64
2021/04/10 11:11:03;;;;;;;7.07;1.88;;;;;;;8.02;100.00;101428.09;3585695;40;20041;-66
2021/04/10 11:13:29;;;;;;;5.72;1.80;;;;;;;7.89;100.00;101433.44;3585557;40;20068;-65
2021/04/10 11:15:56;;;;;;;6.63;1.73;;;;;;;7.99;100.00;101430.94;3585224;40;20311;-65
2021/04/10 11:18:28;;;;;;;7.53;2.72;;;;;;;7.99;100.00;101428.28;3585393;40;20053;-64
2021/04/10 11:21:16;;;;;;;7.85;1.90;;;;;;;7.85;100.00;101423.03;3584977;40;20113;-66
2021/04/10 11:24:02;;;;;;;4.35;1.90;;;;;;;7.94;100.00;101414.34;3583820;40;20045;-66
2021/04/10 11:26:39;;;;;;;8.75;2.33;;;;;;;7.96;100.00;101417.75;3585373;40;20043;-66
2021/04/10 11:29:15;;;;;;;7.40;1.85;;;;;;;8.24;100.00;101400.66;3583350;40;20060;-65
2021/04/10 11:31:42;;;;;;;7.00;1.90;;;;;;;8.31;100.00;101400.22;3585278;40;20044;-67
2021/04/10 11:34:28;;;;;;;9.07;2.10;;;;;;;7.78;100.00;101403.81;3585285;40;20313;-67
2021/04/10 11:36:55;;;;;;;7.07;1.95;;;;;;;7.78;100.00;101393.09;3585291;40;20055;-67
2021/04/10 11:39:21;;;;;;;9.05;2.33;;;;;;;7.55;100.00;101394.66;3584969;40;20372;-66
2021/04/10 11:41:48;;;;;;;8.10;2.20;;;;;;;7.70;100.00;101396.31;3583714;40;20129;-66
2021/04/10 11:44:14;;;;;;;6.38;2.30;;;;;;;7.76;100.00;101394.16;3583124;40;20074;-66
2021/04/10 11:46:40;;;;;;;8.50;2.85;;;;;;;7.62;100.00;101401.31;3585056;40;20104;-65
2021/04/10 11:49:06;;;;;;;7.88;2.03;;;;;;;7.64;100.00;101390.50;3583767;40;20645;-64
2021/04/10 11:51:33;;;;;;;9.38;2.70;;;;;;;7.67;100.00;101380.44;3584147;40;20028;-64
2021/04/10 11:53:59;;;;;;;7.55;2.70;;;;;;;7.93;100.00;101390.31;3583997;40;20044;-64
2021/04/10 11:56:27;;;;;;;6.43;2.42;;;;;;;8.04;100.00;101383.25;3584662;40;20537;-65
2021/04/10 11:59:00;;;;;;;9.90;2.35;;;;;;;7.96;100.00;101382.91;3584462;40;20391;-64
2021/04/10 12:01:26;;;;;;;5.68;2.25;;;;;;;7.84;100.00;101381.09;3585213;40;20366;-64
2021/04/10 12:03:54;;;;;;;9.07;2.60;;;;;;;7.88;100.00;101377.25;3583807;40;20059;-64
2021/04/10 12:06:31;;;;;;;7.18;2.60;;;;;;;7.84;100.00;101371.22;3583189;40;20059;-64
2021/04/10 12:09:01;;;;;;;7.05;2.40;;;;;;;7.95;100.00;101367.81;3584817;40;20032;-64
2021/04/10 12:11:27;;;;;;;9.50;2.75;;;;;;;7.95;100.00;101370.50;3584099;40;20040;-64
2021/04/10 12:13:53;;;;;;;9.98;2.45;;;;;;;7.97;100.00;101367.72;3584620;40;20060;-66
2021/04/10 12:16:19;;;;;;;15.18;3.15;;;;;;;7.94;100.00;101365.25;3584768;40;20319;-65
2021/04/10 12:18:45;;;;;;;6.78;2.53;;;;;;;8.03;100.00;101362.75;3584843;40;20055;-64
2021/04/10 12:21:11;;;;;;;7.07;2.85;;;;;;;8.12;100.00;101360.41;3584043;40;20045;-63